Terminal Aerodrome Forecast
Issued by NWS Portland, OR

Home | Current Version | Previous Version | Text Only | Print | Product List | Glossary On
Versions: 1 2 3 4 5 6 7 8 9 10 11 12 13 14 15 16 17 18 19 20 21 22 23 24 25 26 27 28
000
FTUS46 KPQR 191127
TAFHIO
TAF
KHIO 191127Z 1912/2012 VRB03KT P6SM BKN035 OVC045
     FM192000 32004KT P6SM BKN040
     FM192200 32004KT P6SM BKN050
     FM200000 33007KT P6SM SCT050
     FM200300 33007KT P6SM FEW250
     FM200700 VRB02KT P6SM FEW250=

USA.gov is the U.S. government's official web portal to all federal, state and local government web resources and services.